Forside
METAR-TAF:

METAR-TAF

Lufthavne :

Rabat, Marokko

Breddekreds: 34-03N, længdekreds: 006-46W, højde: 84 m

Aktuelle vejr

Denne rapport blev lavet for 36 minutter siden, kl. 15:30 UTC
Vind 12 kt fra vest, varierende mellem vest og nordnordvest
Temperatur 22°C
Fugtighed 73%
Tryk 1015 hPa
Sigt: 7000 m
Spredte skyer i en højde af 1300 ft
Brudte skyer i en højde af 2000 ft

METAR: GMME 161530Z 28012KT 260V330 7000 SCT013 BKN020 22/17 Q1015 NOSIG

Tid: 17:06 (16:06 UTC)

Vejrudsigter

Denne rapport blev lavet for 5 timer og 6 minutter siden, kl. 11:00 UTC
Foreløbig gælder fra 16 på 12 UTC til 17 på 18 UTC
Vind 14 kt fra vest
Sigt: 7000 m
Spredte skyer i en højde af 1600 ft
Brudte skyer i en højde af 2000 ft
Midlertidig
fra 16 på 12 UTC til 16 på 18 UTC
regn

TAF: GMME 161100Z 1612/1718 28014KT 7000 SCT016 BKN020 TEMPO 1612/1618 RA

Vejrobservationer og prognoser fra mere end 4000 lufthavne (METAR og TAF).

De gule og røde prikker repræsenterer de meteorologiske stationer.

Flyt musen over at se navnet på stationen.

Så klik over at se vejr observationer og prognoser.

At skifte det kort: Klik på de grønne knapper med et sort kors for at zoome ind; på den grønne knap med en bindestreg for at zoome ud; eller på de grønne pile for tilstødende kort.


METAR-TAF: